createdAt,value
2019-03-02T00:00:23.531Z,6.20
2019-03-02T00:02:52.065Z,6.20
2019-03-02T00:05:20.872Z,6.20
2019-03-02T00:07:50.723Z,6.10
2019-03-02T00:10:19.239Z,5.90
2019-03-02T00:12:47.715Z,6.00
2019-03-02T00:15:16.242Z,6.00
2019-03-02T00:17:44.788Z,6.10
2019-03-02T00:20:14.864Z,6.20
2019-03-02T00:22:44.794Z,6.10
2019-03-02T00:25:13.635Z,6.00
2019-03-02T00:27:42.181Z,5.90
2019-03-02T00:30:17.759Z,5.90
2019-03-02T00:32:45.930Z,6.00
2019-03-02T00:35:14.595Z,6.00
2019-03-02T00:37:43.198Z,6.00
2019-03-02T00:40:12.164Z,6.00
2019-03-02T00:42:40.707Z,6.00
2019-03-02T00:45:16.196Z,5.80
2019-03-02T00:47:44.889Z,5.90
2019-03-02T00:50:13.552Z,6.00
2019-03-02T00:52:42.364Z,6.00
2019-03-02T00:55:11.248Z,6.00
2019-03-02T00:57:39.785Z,6.10
2019-03-02T01:00:18.055Z,6.20
2019-03-02T01:02:46.599Z,6.20
2019-03-02T01:05:15.766Z,6.20
2019-03-02T01:07:44.309Z,6.00
2019-03-02T01:10:19.070Z,6.00
2019-03-02T01:12:46.894Z,5.90
2019-03-02T01:15:17.498Z,5.90
2019-03-02T01:17:46.198Z,5.90
2019-03-02T01:20:16.315Z,5.90
2019-03-02T01:22:48.207Z,5.90
2019-03-02T01:25:17.919Z,5.80
2019-03-02T01:27:46.534Z,5.80
2019-03-02T01:30:19.548Z,5.80
2019-03-02T01:32:48.817Z,5.70
2019-03-02T01:35:20.257Z,5.70
2019-03-02T01:37:48.719Z,5.60
2019-03-02T01:40:17.315Z,5.60
2019-03-02T01:42:45.854Z,5.50
2019-03-02T01:45:16.327Z,5.60
2019-03-02T01:47:50.811Z,5.70
2019-03-02T01:50:17.046Z,5.80
2019-03-02T01:52:45.955Z,5.80
2019-03-02T01:55:16.227Z,5.80
2019-03-02T01:57:44.915Z,5.80
2019-03-02T02:00:16.884Z,5.80
2019-03-02T02:02:45.332Z,5.80
2019-03-02T02:05:13.807Z,5.80
2019-03-02T02:07:42.334Z,5.90
2019-03-02T02:10:13.119Z,5.90
2019-03-02T02:12:41.879Z,5.90
2019-03-02T02:15:13.363Z,5.90
2019-03-02T02:17:41.887Z,5.90
2019-03-02T02:20:14.560Z,5.90
2019-03-02T02:22:43.183Z,5.80
2019-03-02T02:25:16.552Z,5.80
2019-03-02T02:27:45.139Z,5.80
2019-03-02T02:30:18.888Z,5.90
2019-03-02T02:32:47.504Z,5.90
2019-03-02T02:35:16.389Z,5.80
2019-03-02T02:37:44.942Z,5.80
2019-03-02T02:40:14.211Z,5.90
2019-03-02T02:42:43.328Z,5.80
2019-03-02T02:45:20.592Z,5.80
2019-03-02T02:47:51.934Z,5.80
2019-03-02T02:50:28.448Z,5.80
2019-03-02T02:52:50.663Z,5.80
2019-03-02T02:55:19.193Z,5.70
2019-03-02T02:57:47.786Z,5.60
2019-03-02T03:00:24.241Z,5.60
2019-03-02T03:02:52.837Z,5.60
2019-03-02T03:05:21.523Z,5.70
2019-03-02T03:07:53.131Z,5.70
2019-03-02T03:10:33.021Z,5.70
2019-03-02T03:13:03.758Z,5.60
2019-03-02T03:15:38.297Z,5.50
2019-03-02T03:18:07.261Z,5.50
2019-03-02T03:20:33.896Z,5.60
2019-03-02T03:23:02.437Z,5.60
2019-03-02T03:25:31.036Z,5.60
2019-03-02T03:27:59.599Z,5.50
2019-03-02T03:30:35.601Z,5.40
2019-03-02T03:32:59.584Z,5.40
2019-03-02T03:35:28.627Z,5.50
2019-03-02T03:37:57.245Z,5.40
2019-03-02T03:40:27.052Z,5.50
2019-03-02T03:43:02.156Z,5.30
2019-03-02T03:45:28.365Z,5.30
2019-03-02T03:47:56.313Z,5.40
2019-03-02T03:50:24.911Z,5.40
2019-03-02T03:52:53.459Z,5.40
2019-03-02T03:55:25.061Z,5.30
2019-03-02T03:57:55.322Z,5.40
2019-03-02T04:00:22.419Z,5.40
2019-03-02T04:02:51.019Z,5.30
2019-03-02T04:05:19.494Z,5.40
2019-03-02T04:07:49.589Z,5.40
2019-03-02T04:10:24.933Z,5.40
2019-03-02T04:12:48.979Z,5.40
2019-03-02T04:15:17.797Z,5.40
2019-03-02T04:17:46.322Z,5.50
2019-03-02T04:20:30.156Z,5.60
2019-03-02T04:23:01.431Z,5.60
2019-03-02T04:25:29.966Z,5.60
2019-03-02T04:27:58.498Z,5.50
2019-03-02T04:30:31.280Z,5.50
2019-03-02T04:33:01.887Z,5.60
2019-03-02T04:35:29.931Z,5.60
2019-03-02T04:38:00.605Z,5.60
2019-03-02T04:40:29.116Z,5.50
2019-03-02T04:42:57.748Z,5.50
2019-03-02T04:45:26.295Z,5.50
2019-03-02T04:47:54.767Z,5.50
2019-03-02T04:50:23.505Z,5.60
2019-03-02T04:52:53.491Z,5.50
2019-03-02T04:55:21.963Z,5.50
2019-03-02T04:57:50.557Z,5.50
2019-03-02T05:00:19.173Z,5.50
2019-03-02T05:02:47.700Z,5.40
2019-03-02T05:05:16.246Z,5.30
2019-03-02T05:07:44.767Z,5.30
2019-03-02T05:10:13.454Z,5.30
2019-03-02T05:12:41.986Z,5.40
2019-03-02T05:15:16.275Z,5.40
2019-03-02T05:17:43.906Z,5.40
2019-03-02T05:20:12.748Z,5.30
2019-03-02T05:22:41.342Z,5.40
2019-03-02T05:25:10.545Z,5.40
2019-03-02T05:27:39.098Z,5.40
2019-03-02T05:30:10.701Z,5.40
2019-03-02T05:32:39.317Z,5.50
2019-03-02T05:35:08.062Z,5.50
2019-03-02T05:37:39.391Z,5.50
2019-03-02T05:40:13.026Z,5.50
2019-03-02T05:42:41.647Z,5.50
2019-03-02T05:45:12.594Z,5.50
2019-03-02T05:47:41.428Z,5.50
2019-03-02T05:50:11.598Z,5.50
2019-03-02T05:52:40.282Z,5.60
2019-03-02T05:55:09.646Z,5.50
2019-03-02T05:57:40.504Z,5.50
2019-03-02T06:00:16.478Z,5.50
2019-03-02T06:02:45.025Z,5.40
2019-03-02T06:05:13.686Z,5.40
2019-03-02T06:07:42.238Z,5.30
2019-03-02T06:10:14.776Z,5.50
2019-03-02T06:12:43.458Z,5.60
2019-03-02T06:15:15.792Z,5.50
2019-03-02T06:17:44.335Z,5.50
2019-03-02T06:20:13.506Z,5.50
2019-03-02T06:22:42.127Z,5.50
2019-03-02T06:25:20.473Z,5.60
2019-03-02T06:27:47.273Z,5.70
2019-03-02T06:30:21.555Z,5.70
2019-03-02T06:32:50.183Z,5.80
2019-03-02T06:35:18.846Z,5.80
2019-03-02T06:37:47.467Z,5.90
2019-03-02T06:40:20.134Z,5.90
2019-03-02T06:42:46.829Z,5.90
2019-03-02T06:45:19.588Z,5.90
2019-03-02T06:47:48.199Z,5.90
2019-03-02T06:50:17.773Z,5.90
2019-03-02T06:52:46.455Z,5.80
2019-03-02T06:55:16.994Z,5.80
2019-03-02T06:57:49.946Z,5.70
2019-03-02T07:00:17.728Z,5.80
2019-03-02T07:02:46.360Z,5.80
2019-03-02T07:05:14.815Z,5.80
2019-03-02T07:07:43.530Z,5.80
2019-03-02T07:10:21.687Z,5.90
2019-03-02T07:12:50.103Z,5.90
2019-03-02T07:15:18.619Z,6.00
2019-03-02T07:18:06.112Z,6.00
2019-03-02T07:20:37.011Z,6.00
2019-03-02T07:23:06.013Z,6.00
2019-03-02T07:25:36.943Z,6.00
2019-03-02T07:28:05.871Z,6.00
2019-03-02T07:30:35.286Z,6.10
2019-03-02T07:33:03.972Z,6.00
2019-03-02T07:35:32.578Z,6.00
2019-03-02T07:38:01.116Z,6.10
2019-03-02T07:40:29.733Z,6.00
2019-03-02T07:42:58.260Z,6.00
2019-03-02T07:45:27.235Z,6.10
2019-03-02T07:48:00.042Z,6.10
2019-03-02T07:50:29.439Z,6.10
2019-03-02T07:52:56.459Z,6.10
2019-03-02T07:55:24.984Z,6.10
2019-03-02T07:57:53.534Z,6.10
2019-03-02T08:00:22.903Z,6.00
2019-03-02T08:02:51.523Z,6.10
2019-03-02T08:05:20.055Z,6.10
2019-03-02T08:07:48.603Z,6.20
2019-03-02T08:10:17.375Z,6.10
2019-03-02T08:12:45.986Z,6.10
2019-03-02T08:15:25.854Z,6.10
2019-03-02T08:17:54.565Z,6.10
2019-03-02T08:20:24.501Z,6.00
2019-03-02T08:22:53.735Z,6.00
2019-03-02T08:25:22.399Z,5.90
2019-03-02T08:27:51.592Z,5.90
2019-03-02T08:30:24.473Z,5.80
2019-03-02T08:32:57.786Z,5.80
2019-03-02T08:35:23.390Z,5.90
2019-03-02T08:37:51.939Z,6.00
2019-03-02T08:40:23.442Z,6.00
2019-03-02T08:42:50.735Z,6.10
2019-03-02T08:45:20.099Z,6.20
2019-03-02T08:47:48.785Z,6.30
2019-03-02T08:50:18.809Z,6.40
2019-03-02T08:52:47.690Z,6.40
2019-03-02T08:55:23.074Z,6.50
2019-03-02T08:57:53.809Z,6.60
2019-03-02T09:00:26.399Z,6.60
2019-03-02T09:02:58.737Z,6.70
2019-03-02T09:05:42.862Z,6.70
2019-03-02T09:07:55.454Z,6.70
2019-03-02T09:10:24.050Z,6.70
2019-03-02T09:12:58.292Z,6.70
2019-03-02T09:15:26.283Z,6.80
2019-03-02T09:17:57.660Z,6.90
2019-03-02T09:20:24.868Z,6.90
2019-03-02T09:22:56.483Z,7.00
2019-03-02T09:25:27.589Z,7.00
2019-03-02T09:27:54.721Z,7.10
2019-03-02T09:30:23.516Z,7.10
2019-03-02T09:32:53.736Z,7.10
2019-03-02T09:35:22.337Z,7.10
2019-03-02T09:37:50.952Z,7.20
2019-03-02T09:40:24.092Z,7.20
2019-03-02T09:42:51.887Z,7.30
2019-03-02T09:45:20.684Z,7.30
2019-03-02T09:47:51.847Z,7.40
2019-03-02T09:50:22.942Z,7.40
2019-03-02T09:52:51.570Z,7.50
2019-03-02T09:55:20.612Z,7.60
2019-03-02T09:57:49.636Z,7.60
2019-03-02T10:00:26.274Z,7.70
2019-03-02T10:02:54.939Z,7.70
2019-03-02T10:05:25.291Z,7.70
2019-03-02T10:07:53.978Z,7.70
2019-03-02T10:10:25.081Z,7.70
2019-03-02T10:12:53.328Z,7.80
2019-03-02T10:15:26.424Z,7.90
2019-03-02T10:17:55.112Z,7.90
2019-03-02T10:20:23.719Z,8.00
2019-03-02T10:22:53.420Z,8.10
2019-03-02T10:25:26.556Z,8.20
2019-03-02T10:27:57.573Z,8.30
2019-03-02T10:30:26.019Z,8.30
2019-03-02T10:32:55.532Z,8.40
2019-03-02T10:35:25.632Z,8.40
2019-03-02T10:37:54.164Z,8.50
2019-03-02T10:40:23.241Z,8.50
2019-03-02T10:42:52.149Z,8.50
2019-03-02T10:45:21.969Z,8.50
2019-03-02T10:47:50.524Z,8.50
2019-03-02T10:50:26.390Z,8.60
2019-03-02T10:52:54.932Z,8.60
2019-03-02T10:55:24.223Z,8.60
2019-03-02T10:57:52.904Z,8.60
2019-03-02T11:00:31.777Z,8.50
2019-03-02T11:03:08.442Z,8.50
2019-03-02T11:05:56.768Z,8.50
2019-03-02T11:08:42.971Z,8.50
2019-03-02T11:11:25.705Z,8.50
2019-03-02T11:14:00.199Z,8.50
2019-03-02T11:16:47.847Z,8.60
2019-03-02T11:19:24.751Z,8.60
2019-03-02T11:22:00.600Z,8.60
2019-03-02T11:24:33.450Z,8.60
2019-03-02T11:27:18.581Z,8.60
2019-03-02T11:29:57.707Z,8.70
2019-03-02T11:32:42.946Z,8.80
2019-03-02T11:35:29.859Z,8.80
2019-03-02T11:38:06.038Z,8.90
2019-03-02T11:40:54.598Z,8.90
2019-03-02T11:43:24.704Z,8.90
2019-03-02T11:45:54.958Z,9.00
2019-03-02T11:48:37.136Z,9.00
2019-03-02T11:51:16.242Z,9.10
2019-03-02T11:53:48.724Z,9.10
2019-03-02T11:56:27.198Z,9.10
2019-03-02T11:59:09.418Z,9.10
2019-03-02T12:01:45.832Z,9.00
2019-03-02T12:04:32.543Z,9.10
2019-03-02T12:07:14.651Z,9.00
2019-03-02T12:09:50.539Z,9.00
2019-03-02T12:12:20.727Z,9.00
2019-03-02T12:15:09.243Z,9.00
2019-03-02T12:17:45.659Z,9.00
2019-03-02T12:20:27.438Z,9.00
2019-03-02T12:22:57.616Z,9.10
2019-03-02T12:25:44.526Z,9.10
2019-03-02T12:28:33.097Z,9.10
2019-03-02T12:31:11.875Z,9.10
2019-03-02T12:33:54.112Z,9.00
2019-03-02T12:36:23.047Z,9.00
2019-03-02T12:38:58.968Z,9.00
2019-03-02T12:41:29.138Z,9.00
2019-03-02T12:44:17.465Z,9.00
2019-03-02T12:46:47.905Z,9.00
2019-03-02T12:49:19.022Z,9.00
2019-03-02T12:52:04.446Z,9.00
2019-03-02T12:54:44.718Z,9.00
2019-03-02T12:57:31.218Z,9.00
2019-03-02T13:00:10.348Z,8.90
2019-03-02T13:02:44.261Z,8.90
2019-03-02T13:05:21.322Z,9.00
2019-03-02T13:07:58.459Z,9.00
2019-03-02T13:10:49.343Z,9.00
2019-03-02T13:13:30.812Z,9.10
2019-03-02T13:16:10.195Z,9.10
2019-03-02T13:18:58.643Z,9.10
2019-03-02T13:21:28.910Z,9.10
2019-03-02T13:24:04.856Z,9.20
2019-03-02T13:26:41.287Z,9.20
2019-03-02T13:29:12.969Z,9.30
2019-03-02T13:31:52.167Z,9.30
2019-03-02T13:34:38.559Z,9.30
2019-03-02T13:37:08.756Z,9.20
2019-03-02T13:39:51.063Z,9.10
2019-03-02T13:42:34.865Z,9.10
2019-03-02T13:45:22.419Z,9.10
2019-03-02T13:48:09.218Z,9.00
2019-03-02T13:50:39.324Z,9.00
2019-03-02T13:53:09.511Z,9.00
2019-03-02T13:55:39.691Z,9.10
2019-03-02T13:58:19.352Z,9.00
2019-03-02T14:00:49.578Z,9.10
2019-03-02T14:03:28.721Z,9.00
2019-03-02T14:06:07.936Z,9.10
2019-03-02T14:08:39.819Z,9.10
2019-03-02T14:11:19.053Z,9.10
2019-03-02T14:14:08.353Z,9.00
2019-03-02T14:16:37.665Z,8.90
2019-03-02T14:19:23.984Z,8.90
2019-03-02T14:21:54.164Z,8.90
2019-03-02T14:24:43.256Z,8.90
2019-03-02T14:27:28.688Z,8.90
2019-03-02T14:29:58.870Z,8.90
2019-03-02T14:32:34.960Z,8.90
2019-03-02T14:35:21.669Z,8.80
2019-03-02T14:37:54.843Z,8.80
2019-03-02T14:40:34.332Z,8.80
2019-03-02T14:43:15.847Z,8.80
2019-03-02T14:45:48.010Z,8.70
2019-03-02T14:48:27.331Z,8.70
2019-03-02T14:50:57.586Z,8.70
2019-03-02T14:53:30.385Z,8.70
2019-03-02T14:56:15.888Z,8.70
2019-03-02T14:58:52.162Z,8.70
2019-03-02T15:01:36.100Z,8.70
2019-03-02T15:04:07.300Z,8.80
2019-03-02T15:06:40.601Z,8.70
2019-03-02T15:09:15.643Z,8.60
2019-03-02T15:11:45.862Z,8.60
2019-03-02T15:14:24.589Z,8.70
2019-03-02T15:17:00.471Z,8.70
2019-03-02T15:19:57.471Z,8.60
2019-03-02T15:22:38.940Z,8.60
2019-03-02T15:25:09.546Z,8.60
2019-03-02T15:27:42.225Z,8.70
2019-03-02T15:30:26.862Z,8.60
2019-03-02T15:33:08.902Z,8.70
2019-03-02T15:35:39.089Z,8.70
2019-03-02T15:38:09.253Z,8.80
2019-03-02T15:40:51.976Z,8.80
2019-03-02T15:43:22.220Z,8.70
2019-03-02T15:46:01.247Z,8.60
2019-03-02T15:48:40.562Z,8.60
2019-03-02T15:51:10.888Z,8.60
2019-03-02T15:53:52.886Z,8.60
2019-03-02T15:56:36.734Z,8.60
2019-03-02T15:59:06.909Z,8.60
2019-03-02T16:01:40.271Z,8.60
2019-03-02T16:04:16.479Z,8.60
2019-03-02T16:07:03.267Z,8.60
2019-03-02T16:09:48.694Z,8.60
2019-03-02T16:12:27.795Z,8.60
2019-03-02T16:14:58.039Z,8.60
2019-03-02T16:17:40.066Z,8.60
2019-03-02T16:20:18.216Z,8.60
2019-03-02T16:22:51.517Z,8.50
2019-03-02T16:25:21.764Z,8.40
2019-03-02T16:28:08.170Z,8.40
2019-03-02T16:30:47.097Z,8.30
2019-03-02T16:33:27.206Z,8.30
2019-03-02T16:36:09.946Z,8.30
2019-03-02T16:38:56.126Z,8.20
2019-03-02T16:41:31.161Z,8.20
2019-03-02T16:44:10.342Z,8.10
2019-03-02T16:46:49.196Z,8.20
2019-03-02T16:49:36.919Z,8.20
2019-03-02T16:52:23.936Z,8.20
2019-03-02T16:54:57.301Z,8.20
2019-03-02T16:57:30.773Z,8.20
2019-03-02T17:00:14.540Z,8.10
2019-03-02T17:02:50.766Z,8.10
2019-03-02T17:05:31.873Z,8.10
2019-03-02T17:08:17.893Z,8.00
2019-03-02T17:10:48.198Z,8.00
2019-03-02T17:13:18.517Z,8.00
2019-03-02T17:15:48.704Z,7.90
2019-03-02T17:18:21.763Z,7.80
2019-03-02T17:20:50.988Z,7.80
2019-03-02T17:23:27.375Z,7.80
2019-03-02T17:26:00.508Z,7.80
2019-03-02T17:28:31.518Z,7.70
2019-03-02T17:31:08.386Z,7.70
2019-03-02T17:33:38.527Z,7.70
2019-03-02T17:36:25.190Z,7.70
2019-03-02T17:39:11.507Z,7.70
2019-03-02T17:41:47.721Z,7.60
2019-03-02T17:44:18.734Z,7.60
2019-03-02T17:46:55.939Z,7.60
2019-03-02T17:49:29.807Z,7.60
2019-03-02T17:52:00.790Z,7.50
2019-03-02T17:54:46.514Z,7.40
2019-03-02T17:57:17.646Z,7.30
2019-03-02T17:59:58.523Z,7.20
2019-03-02T18:02:28.723Z,7.00
2019-03-02T18:05:11.558Z,6.90
2019-03-02T18:07:43.247Z,6.70
2019-03-02T18:10:19.303Z,6.60
2019-03-02T18:12:49.632Z,6.50
2019-03-02T18:15:25.869Z,6.50
2019-03-02T18:18:00.857Z,6.50
2019-03-02T18:20:29.522Z,6.50
2019-03-02T18:22:58.257Z,6.40
2019-03-02T18:25:27.201Z,6.40
2019-03-02T18:27:55.829Z,6.50
2019-03-02T18:30:24.427Z,6.50
2019-03-02T18:32:54.738Z,6.40
2019-03-02T18:35:23.233Z,6.40
2019-03-02T18:37:52.062Z,6.40
2019-03-02T18:40:20.749Z,6.30
2019-03-02T18:42:49.355Z,6.30
2019-03-02T18:45:17.958Z,6.40
2019-03-02T18:47:46.506Z,6.50
2019-03-02T18:50:32.474Z,6.50
2019-03-02T18:53:03.999Z,6.60
2019-03-02T18:55:32.875Z,6.60
2019-03-02T18:58:01.456Z,6.60
2019-03-02T19:00:31.839Z,6.50
2019-03-02T19:03:00.555Z,6.40
2019-03-02T19:05:30.144Z,6.30
2019-03-02T19:08:00.034Z,6.30
2019-03-02T19:10:29.107Z,6.30
2019-03-02T19:12:57.894Z,6.30
2019-03-02T19:15:26.663Z,6.20
2019-03-02T19:17:55.218Z,6.10
2019-03-02T19:20:24.329Z,6.10
2019-03-02T19:22:52.915Z,6.00
2019-03-02T19:25:21.532Z,5.90
2019-03-02T19:27:50.222Z,5.80
2019-03-02T19:30:20.677Z,5.80
2019-03-02T19:32:49.309Z,5.60
2019-03-02T19:35:19.242Z,5.60
2019-03-02T19:37:47.922Z,5.60
2019-03-02T19:40:19.507Z,5.50
2019-03-02T19:42:48.112Z,5.40
2019-03-02T19:45:16.795Z,5.30
2019-03-02T19:47:45.394Z,5.20
2019-03-02T19:50:16.743Z,5.20
2019-03-02T19:52:45.406Z,5.10
2019-03-02T19:55:15.682Z,5.00
2019-03-02T19:57:44.881Z,5.00
2019-03-02T20:00:21.627Z,5.00
2019-03-02T20:02:50.150Z,5.10
2019-03-02T20:05:18.747Z,5.10
2019-03-02T20:07:47.294Z,5.00
2019-03-02T20:10:18.638Z,5.00
2019-03-02T20:12:47.315Z,4.90
2019-03-02T20:15:21.803Z,4.80
2019-03-02T20:17:51.248Z,4.80
2019-03-02T20:20:20.204Z,4.80
2019-03-02T20:22:48.679Z,4.70
2019-03-02T20:25:18.557Z,4.70
2019-03-02T20:27:47.141Z,4.70
2019-03-02T20:30:23.692Z,4.70
2019-03-02T20:32:52.307Z,4.70
2019-03-02T20:35:26.202Z,4.60
2019-03-02T20:37:54.798Z,4.60
2019-03-02T20:40:24.885Z,4.50
2019-03-02T20:42:53.412Z,4.40
2019-03-02T20:45:22.027Z,4.20
2019-03-02T20:47:50.619Z,4.20
2019-03-02T20:50:22.251Z,4.20
2019-03-02T20:52:53.271Z,4.40
2019-03-02T20:55:21.815Z,4.50
2019-03-02T20:57:50.544Z,4.70
2019-03-02T21:00:28.051Z,4.90
2019-03-02T21:02:57.418Z,5.00
2019-03-02T21:05:27.176Z,5.10
2019-03-02T21:07:55.964Z,5.10
2019-03-02T21:10:32.364Z,5.10
2019-03-02T21:13:00.919Z,5.10
2019-03-02T21:15:33.767Z,5.00
2019-03-02T21:18:02.622Z,5.00
2019-03-02T21:20:31.216Z,5.00
2019-03-02T21:22:59.826Z,5.10
2019-03-02T21:25:28.358Z,5.10
2019-03-02T21:27:56.968Z,5.10
2019-03-02T21:30:25.531Z,5.10
2019-03-02T21:32:54.150Z,5.10
2019-03-02T21:35:22.735Z,5.10
2019-03-02T21:37:51.430Z,5.10
2019-03-02T21:40:27.550Z,5.20
2019-03-02T21:42:56.434Z,5.20
2019-03-02T21:45:29.934Z,5.30
2019-03-02T21:47:58.535Z,5.30
2019-03-02T21:50:46.839Z,5.30
2019-03-02T21:53:15.500Z,5.40
2019-03-02T21:55:44.042Z,5.40
2019-03-02T21:58:12.486Z,5.40
2019-03-02T22:00:41.027Z,5.40
2019-03-02T22:03:09.599Z,5.40
2019-03-02T22:05:38.105Z,5.50
2019-03-02T22:08:06.630Z,5.60
2019-03-02T22:10:44.280Z,5.70
2019-03-02T22:13:12.799Z,5.50
2019-03-02T22:15:41.343Z,5.50
2019-03-02T22:18:09.862Z,5.50
2019-03-02T22:20:38.336Z,5.30
2019-03-02T22:23:06.964Z,5.10
2019-03-02T22:25:35.481Z,4.90
2019-03-02T22:28:04.135Z,4.80
2019-03-02T22:30:32.599Z,4.70
2019-03-02T22:33:01.131Z,4.60
2019-03-02T22:35:29.830Z,4.60
2019-03-02T22:37:58.346Z,4.60
2019-03-02T22:40:28.131Z,4.50
2019-03-02T22:42:56.643Z,4.40
2019-03-02T22:45:25.259Z,4.30
2019-03-02T22:47:53.707Z,4.20
2019-03-02T22:50:27.278Z,4.30
2019-03-02T22:52:55.871Z,4.20
2019-03-02T22:55:24.451Z,4.20
2019-03-02T22:57:53.062Z,4.20
2019-03-02T23:00:27.691Z,4.30
2019-03-02T23:02:55.086Z,4.30
2019-03-02T23:05:24.248Z,4.30
2019-03-02T23:07:52.864Z,4.40
2019-03-02T23:10:21.384Z,4.40
2019-03-02T23:12:49.995Z,4.40
2019-03-02T23:15:22.626Z,4.30
2019-03-02T23:17:51.238Z,4.30
2019-03-02T23:20:19.764Z,4.30
2019-03-02T23:22:48.366Z,4.50
2019-03-02T23:25:17.187Z,4.40
2019-03-02T23:27:45.735Z,4.40
2019-03-02T23:30:23.310Z,4.40
2019-03-02T23:32:51.784Z,4.40
2019-03-02T23:35:20.306Z,4.40
2019-03-02T23:37:48.824Z,4.30
2019-03-02T23:40:19.543Z,4.30
2019-03-02T23:42:48.067Z,4.30
2019-03-02T23:45:18.611Z,4.30
2019-03-02T23:47:47.066Z,4.30
2019-03-02T23:50:15.848Z,4.40
2019-03-02T23:52:44.512Z,4.60
2019-03-02T23:55:14.260Z,4.60
2019-03-02T23:57:42.940Z,4.60
